Time;durP1;ratioP1;P1;durP2;ratioP2;P2;SDS_P1;SDS_P2;PMS_P1;PMS_P2;Temp;Humidity;BMP_temperature;BMP_pressure;BME280_temperature;BME280_humidity;BME280_pressure;Samples;Min_cycle;Max_cycle;Signal;HPM_P1;HPM_P2
2023/06/16 00:00:14;;;;;;;5.40;4.90;;;17.20;99.90;;;;;;4990709;28;21465;-56
2023/06/16 00:02:43;;;;;;;5.00;4.60;;;17.20;99.90;;;;;;4988487;28;20491;-57
2023/06/16 00:05:12;;;;;;;5.53;5.07;;;17.20;99.90;;;;;;4989180;28;21051;-56
2023/06/16 00:07:40;;;;;;;5.17;4.77;;;17.20;99.90;;;;;;4987749;28;20495;-56
2023/06/16 00:10:10;;;;;;;5.70;5.20;;;17.20;99.90;;;;;;4991938;28;20842;-57
2023/06/16 00:12:40;;;;;;;6.60;5.60;;;17.20;99.90;;;;;;4989709;28;20573;-58
2023/06/16 00:15:10;;;;;;;5.40;4.90;;;17.30;99.90;;;;;;4991594;28;20505;-55
2023/06/16 00:17:44;;;;;;;5.43;5.03;;;17.30;99.90;;;;;;4987915;28;20575;-56
2023/06/16 00:20:13;;;;;;;6.00;5.47;;;17.30;99.90;;;;;;4988443;28;20579;-57
2023/06/16 00:22:47;;;;;;;5.57;5.10;;;17.30;99.90;;;;;;4984679;28;20559;-57
2023/06/16 00:25:19;;;;;;;5.77;5.33;;;17.30;99.90;;;;;;5002077;28;20448;-56
2023/06/16 00:27:47;;;;;;;5.57;5.17;;;17.30;99.90;;;;;;5003319;28;20476;-56
2023/06/16 00:30:15;;;;;;;5.80;5.30;;;17.30;99.90;;;;;;5012638;28;20527;-56
2023/06/16 00:32:45;;;;;;;5.53;5.07;;;17.30;99.90;;;;;;5002297;28;20600;-57
2023/06/16 00:35:13;;;;;;;5.57;5.07;;;17.30;99.90;;;;;;4989082;28;20492;-56
2023/06/16 00:37:41;;;;;;;5.37;4.97;;;17.30;99.90;;;;;;4988241;28;20524;-56
2023/06/16 00:40:10;;;;;;;6.20;4.93;;;17.30;99.90;;;;;;4992454;28;20597;-56
2023/06/16 00:42:40;;;;;;;6.00;5.50;;;17.30;99.90;;;;;;4983445;28;20495;-59
2023/06/16 00:45:08;;;;;;;5.60;5.17;;;17.30;99.90;;;;;;4983862;28;21168;-56
2023/06/16 00:47:37;;;;;;;5.23;4.83;;;17.30;99.90;;;;;;4991805;28;20480;-57
2023/06/16 00:50:06;;;;;;;6.47;5.87;;;17.30;99.90;;;;;;4987928;28;20501;-56
2023/06/16 00:52:39;;;;;;;6.00;5.57;;;17.30;99.90;;;;;;4990670;28;20495;-56
2023/06/16 00:55:08;;;;;;;5.77;5.20;;;17.30;99.90;;;;;;4992403;28;20502;-56
2023/06/16 00:57:39;;;;;;;6.10;5.57;;;17.30;99.90;;;;;;4992632;28;20507;-56
2023/06/16 01:00:11;;;;;;;6.47;5.97;;;17.20;99.90;;;;;;4990978;28;20486;-57
2023/06/16 01:02:40;;;;;;;6.27;5.77;;;17.20;99.90;;;;;;4988943;28;20484;-56
2023/06/16 01:05:09;;;;;;;5.40;4.90;;;17.20;99.90;;;;;;4992204;28;20496;-56
2023/06/16 01:07:43;;;;;;;5.97;5.47;;;17.20;99.90;;;;;;4980343;28;20688;-56
2023/06/16 01:10:18;;;;;;;5.80;5.30;;;17.20;99.90;;;;;;4990930;28;20480;-56
2023/06/16 01:12:55;;;;;;;6.80;5.83;;;17.20;99.90;;;;;;4996447;28;20504;-56
2023/06/16 01:15:26;;;;;;;5.50;5.10;;;17.20;99.90;;;;;;4997265;28;20567;-56
2023/06/16 01:17:57;;;;;;;6.00;5.53;;;17.20;99.90;;;;;;4996148;28;21024;-56
2023/06/16 01:20:30;;;;;;;6.07;5.57;;;17.20;99.90;;;;;;4993204;28;20481;-57
2023/06/16 01:23:10;;;;;;;5.50;5.10;;;17.20;99.90;;;;;;4986491;28;20613;-56
2023/06/16 01:25:42;;;;;;;5.80;5.20;;;17.20;99.90;;;;;;4992442;28;20531;-57
2023/06/16 01:28:12;;;;;;;5.97;5.53;;;17.20;99.90;;;;;;4987484;28;22226;-56
2023/06/16 01:30:45;;;;;;;7.30;6.13;;;17.20;99.90;;;;;;4994566;28;20506;-57
2023/06/16 01:33:15;;;;;;;5.73;5.33;;;17.20;99.90;;;;;;4989957;28;20575;-56
2023/06/16 01:35:43;;;;;;;5.30;4.90;;;17.20;99.90;;;;;;4988545;28;20563;-56
2023/06/16 01:38:13;;;;;;;6.13;5.73;;;17.20;99.90;;;;;;4999004;28;20898;-56
2023/06/16 01:40:43;;;;;;;5.50;5.00;;;17.10;99.90;;;;;;4994372;28;20622;-57
2023/06/16 01:43:11;;;;;;;5.70;5.30;;;17.10;99.90;;;;;;4993775;28;20492;-56
2023/06/16 01:45:40;;;;;;;6.40;5.90;;;17.10;99.90;;;;;;4990807;28;20921;-56
2023/06/16 01:48:09;;;;;;;6.17;5.67;;;17.10;99.90;;;;;;4993589;28;20465;-56
2023/06/16 01:50:37;;;;;;;6.20;5.37;;;17.10;99.90;;;;;;4986637;28;20475;-56
2023/06/16 01:53:05;;;;;;;8.03;5.77;;;17.10;99.90;;;;;;4984176;28;20585;-56
2023/06/16 01:55:33;;;;;;;5.97;5.40;;;17.10;99.90;;;;;;4993823;28;20472;-57
2023/06/16 01:58:03;;;;;;;5.73;5.30;;;17.00;99.90;;;;;;4982782;28;20496;-56
2023/06/16 02:00:36;;;;;;;5.80;5.40;;;17.00;99.90;;;;;;4989420;28;20619;-56
2023/06/16 02:03:06;;;;;;;6.20;5.70;;;17.00;99.90;;;;;;4995893;28;20489;-57
2023/06/16 02:05:36;;;;;;;6.27;5.77;;;17.00;99.90;;;;;;4997142;28;20764;-56
2023/06/16 02:08:06;;;;;;;5.90;5.40;;;17.00;99.90;;;;;;4999213;28;20473;-56
2023/06/16 02:10:34;;;;;;;6.13;5.63;;;17.00;99.90;;;;;;4999299;28;20916;-56
2023/06/16 02:13:04;;;;;;;6.33;5.83;;;17.00;99.90;;;;;;4998907;28;20560;-56
2023/06/16 02:15:32;;;;;;;6.70;6.10;;;17.00;99.90;;;;;;4993493;28;20478;-56
2023/06/16 02:18:02;;;;;;;6.13;5.73;;;17.00;99.90;;;;;;4996945;28;20501;-56
2023/06/16 02:20:30;;;;;;;6.33;5.73;;;17.00;99.90;;;;;;4997573;28;20572;-56
2023/06/16 02:22:58;;;;;;;5.60;5.23;;;17.00;99.90;;;;;;4999090;28;20498;-57
2023/06/16 02:25:26;;;;;;;6.50;5.80;;;17.00;99.90;;;;;;5001037;28;20472;-56
2023/06/16 02:27:54;;;;;;;6.43;5.83;;;16.90;99.90;;;;;;5000967;28;20989;-57
2023/06/16 02:30:23;;;;;;;6.00;5.50;;;16.90;99.90;;;;;;4999736;28;20469;-56
2023/06/16 02:32:52;;;;;;;6.97;5.97;;;16.90;99.90;;;;;;4996930;28;20498;-56
2023/06/16 02:35:29;;;;;;;5.60;5.20;;;16.90;99.90;;;;;;4993833;28;20892;-57
2023/06/16 02:37:58;;;;;;;6.43;5.83;;;17.00;99.90;;;;;;4990552;28;20477;-56
2023/06/16 02:40:26;;;;;;;5.93;5.53;;;17.00;99.90;;;;;;4996621;28;20847;-56
2023/06/16 02:42:55;;;;;;;6.30;5.33;;;17.00;99.90;;;;;;4996636;28;20484;-56
2023/06/16 02:45:24;;;;;;;6.97;6.40;;;17.00;99.90;;;;;;4998013;28;20503;-57
2023/06/16 02:47:52;;;;;;;6.33;5.80;;;16.90;99.90;;;;;;5005315;28;20930;-57
2023/06/16 02:50:22;;;;;;;6.67;6.07;;;16.90;99.90;;;;;;5006257;28;20474;-56
2023/06/16 02:52:51;;;;;;;6.87;6.37;;;16.90;99.90;;;;;;4995590;28;20550;-57
2023/06/16 02:55:19;;;;;;;6.80;6.20;;;16.80;99.90;;;;;;4998296;28;21034;-57
2023/06/16 02:57:47;;;;;;;8.77;7.97;;;16.70;99.90;;;;;;4996301;28;20555;-56
2023/06/16 03:00:16;;;;;;;8.93;8.13;;;16.70;99.90;;;;;;4994642;28;21843;-58
2023/06/16 03:02:46;;;;;;;6.90;6.30;;;16.70;99.90;;;;;;4995006;28;20519;-56
2023/06/16 03:05:15;;;;;;;7.47;6.67;;;16.70;99.90;;;;;;4990181;28;21020;-56
2023/06/16 03:07:44;;;;;;;6.73;6.13;;;16.60;99.90;;;;;;4993698;28;20486;-56
2023/06/16 03:10:12;;;;;;;7.30;6.60;;;16.60;99.90;;;;;;4989838;28;20479;-57
2023/06/16 03:12:42;;;;;;;6.87;6.17;;;16.60;99.90;;;;;;4992137;28;20591;-56
2023/06/16 03:15:10;;;;;;;7.30;6.70;;;16.50;99.90;;;;;;4999407;28;20491;-57
2023/06/16 03:17:38;;;;;;;6.60;6.10;;;16.50;99.90;;;;;;5017674;28;20499;-56
2023/06/16 03:20:08;;;;;;;6.77;6.20;;;16.50;99.90;;;;;;5008106;28;20484;-57
2023/06/16 03:22:36;;;;;;;8.77;6.13;;;16.50;99.90;;;;;;4994207;28;20484;-57
2023/06/16 03:25:05;;;;;;;6.60;6.10;;;16.50;99.90;;;;;;4989162;28;20520;-56
2023/06/16 03:27:33;;;;;;;6.90;6.30;;;16.50;99.90;;;;;;4996029;28;20468;-56
2023/06/16 03:30:01;;;;;;;6.77;6.27;;;16.40;99.90;;;;;;4988747;28;20460;-56
2023/06/16 03:32:29;;;;;;;6.30;5.70;;;16.40;99.90;;;;;;4985254;28;20502;-56
2023/06/16 03:34:57;;;;;;;7.90;6.33;;;16.40;99.90;;;;;;4990422;28;20492;-56
2023/06/16 03:37:27;;;;;;;6.40;5.83;;;16.40;99.90;;;;;;4991175;28;20985;-56
2023/06/16 03:39:55;;;;;;;6.03;5.63;;;16.40;99.90;;;;;;4985331;28;20496;-56
2023/06/16 03:42:23;;;;;;;6.60;6.10;;;16.40;99.90;;;;;;4982138;28;20484;-56
2023/06/16 03:44:51;;;;;;;6.90;6.40;;;16.40;99.90;;;;;;4987643;28;20514;-56
2023/06/16 03:47:19;;;;;;;7.00;6.43;;;16.40;99.90;;;;;;4993610;28;20550;-56
2023/06/16 03:49:47;;;;;;;7.27;6.57;;;16.40;99.90;;;;;;4989764;28;21334;-56
2023/06/16 03:52:15;;;;;;;6.77;6.27;;;16.30;99.90;;;;;;4993778;28;20492;-57
2023/06/16 03:54:45;;;;;;;7.43;6.53;;;16.30;99.90;;;;;;4984435;28;20609;-56
2023/06/16 03:57:13;;;;;;;7.30;6.70;;;16.30;99.90;;;;;;4989985;28;20504;-56
2023/06/16 03:59:41;;;;;;;6.97;6.37;;;16.30;99.90;;;;;;4984828;28;20492;-56
2023/06/16 04:02:09;;;;;;;7.20;6.70;;;16.30;99.90;;;;;;4988332;28;20499;-56
2023/06/16 04:04:37;;;;;;;7.13;6.53;;;16.30;99.90;;;;;;4983444;28;21541;-56
2023/06/16 04:07:07;;;;;;;7.70;7.10;;;16.30;99.90;;;;;;4994166;28;20560;-56
2023/06/16 04:09:35;;;;;;;7.60;6.90;;;16.30;99.90;;;;;;4986621;28;20882;-57
2023/06/16 04:12:06;;;;;;;8.23;7.33;;;16.30;99.90;;;;;;4989159;28;20488;-56
2023/06/16 04:14:34;;;;;;;7.33;6.73;;;16.30;99.90;;;;;;4993492;28;20516;-56
2023/06/16 04:17:02;;;;;;;7.27;6.70;;;16.30;99.90;;;;;;4995791;28;20473;-57
2023/06/16 04:19:29;;;;;;;7.37;6.77;;;16.40;99.90;;;;;;4993127;28;20936;-56
2023/06/16 04:21:58;;;;;;;7.63;7.03;;;16.40;99.90;;;;;;4990522;28;20588;-56
2023/06/16 04:24:26;;;;;;;8.20;7.60;;;16.40;99.90;;;;;;4991109;28;20603;-56
2023/06/16 04:26:58;;;;;;;8.27;7.67;;;16.40;99.90;;;;;;4991314;28;20480;-56
2023/06/16 04:29:27;;;;;;;9.40;8.60;;;16.30;99.90;;;;;;4999509;28;20471;-56
2023/06/16 04:31:58;;;;;;;9.20;8.40;;;16.40;99.90;;;;;;4987757;28;20577;-56
2023/06/16 04:34:26;;;;;;;8.50;7.63;;;16.30;99.90;;;;;;4993584;28;21115;-56
2023/06/16 04:36:57;;;;;;;9.00;8.20;;;16.40;99.90;;;;;;4996259;28;20498;-56
2023/06/16 04:39:25;;;;;;;8.57;7.87;;;16.40;99.90;;;;;;4996543;28;20496;-56
2023/06/16 04:41:53;;;;;;;9.73;8.90;;;16.30;99.90;;;;;;4996199;28;20484;-57
2023/06/16 04:44:21;;;;;;;9.50;8.70;;;16.30;99.90;;;;;;4986537;28;20616;-56
2023/06/16 04:46:50;;;;;;;11.13;10.03;;;16.30;99.90;;;;;;4991888;28;20806;-56
2023/06/16 04:49:19;;;;;;;9.47;8.77;;;16.30;99.90;;;;;;4991977;28;20552;-56
2023/06/16 04:51:47;;;;;;;10.60;9.70;;;16.30;99.90;;;;;;4983499;28;20587;-56
2023/06/16 04:54:15;;;;;;;10.27;9.47;;;16.30;99.90;;;;;;4993173;28;20485;-56
2023/06/16 04:56:43;;;;;;;10.67;9.77;;;16.40;99.90;;;;;;4988588;28;20564;-57
2023/06/16 04:59:11;;;;;;;11.13;10.17;;;16.40;99.90;;;;;;4991972;28;20563;-57
2023/06/16 05:01:39;;;;;;;11.10;10.20;;;16.50;99.90;;;;;;4984954;28;20531;-58
2023/06/16 05:04:09;;;;;;;11.67;10.57;;;16.50;99.90;;;;;;4986263;28;20591;-58
2023/06/16 05:06:37;;;;;;;10.43;9.60;;;16.50;99.90;;;;;;4980828;28;20638;-56
2023/06/16 05:09:05;;;;;;;11.10;10.20;;;16.60;99.90;;;;;;4989036;28;20483;-57
2023/06/16 05:11:33;;;;;;;12.67;11.37;;;16.70;99.90;;;;;;4985319;28;20655;-57
2023/06/16 05:14:01;;;;;;;11.37;10.47;;;16.80;99.90;;;;;;4979770;28;20492;-57
2023/06/16 05:16:29;;;;;;;12.70;11.50;;;16.90;99.90;;;;;;4987151;28;20468;-57
2023/06/16 05:18:57;;;;;;;11.97;10.87;;;16.90;99.90;;;;;;4981920;28;20551;-62
2023/06/16 05:21:27;;;;;;;12.77;11.67;;;17.00;99.90;;;;;;4985911;28;20492;-57
2023/06/16 05:23:57;;;;;;;13.27;11.77;;;17.00;99.90;;;;;;4977954;28;20741;-56
2023/06/16 05:26:25;;;;;;;11.87;10.97;;;17.10;99.90;;;;;;4981608;28;20469;-56
2023/06/16 05:28:53;;;;;;;12.63;11.53;;;17.10;99.90;;;;;;4986165;28;20472;-57
2023/06/16 05:31:21;;;;;;;12.43;11.43;;;17.20;99.90;;;;;;4990463;28;20486;-57
2023/06/16 05:33:49;;;;;;;13.07;11.97;;;17.20;99.90;;;;;;4985387;28;20492;-57
2023/06/16 05:36:17;;;;;;;12.33;11.43;;;17.10;99.90;;;;;;4985067;28;20479;-57
2023/06/16 05:38:47;;;;;;;12.70;11.40;;;17.10;99.90;;;;;;4982352;28;20557;-58
2023/06/16 05:41:16;;;;;;;12.03;11.03;;;17.10;99.90;;;;;;4983560;28;20501;-57
2023/06/16 05:43:44;;;;;;;11.37;10.47;;;17.10;99.90;;;;;;4989614;28;20512;-57
2023/06/16 05:46:12;;;;;;;13.60;12.50;;;17.10;99.90;;;;;;4991211;28;20499;-57
2023/06/16 05:48:40;;;;;;;12.70;11.60;;;17.20;99.90;;;;;;4985730;28;20465;-57
2023/06/16 05:51:11;;;;;;;12.13;11.23;;;17.10;99.90;;;;;;4990082;28;20501;-57
2023/06/16 05:53:39;;;;;;;11.00;10.00;;;17.10;99.90;;;;;;4994392;28;20500;-57
2023/06/16 05:56:09;;;;;;;12.80;11.40;;;17.20;99.90;;;;;;4982514;28;20472;-57
2023/06/16 05:58:37;;;;;;;12.00;11.00;;;17.30;99.90;;;;;;4986741;28;20769;-57
2023/06/16 06:01:06;;;;;;;12.40;11.20;;;17.40;99.90;;;;;;4990281;28;20564;-57
2023/06/16 06:03:34;;;;;;;11.40;10.37;;;17.50;99.90;;;;;;4987265;28;20500;-57
2023/06/16 06:06:03;;;;;;;12.23;11.13;;;17.60;99.90;;;;;;4987354;28;20472;-57
2023/06/16 06:08:31;;;;;;;11.20;10.30;;;17.70;99.90;;;;;;4991668;28;20464;-58
2023/06/16 06:11:01;;;;;;;11.47;10.43;;;17.80;99.90;;;;;;4991805;28;21224;-58
2023/06/16 06:13:30;;;;;;;11.47;10.43;;;17.80;99.90;;;;;;4997530;28;20832;-57
2023/06/16 06:15:58;;;;;;;11.17;10.30;;;17.90;99.90;;;;;;4991234;28;20563;-57
2023/06/16 06:18:26;;;;;;;10.87;9.90;;;17.90;99.90;;;;;;4994898;28;20496;-58
2023/06/16 06:20:54;;;;;;;11.23;10.23;;;18.00;99.90;;;;;;4986785;28;21123;-58
2023/06/16 06:23:22;;;;;;;11.33;10.23;;;18.00;99.90;;;;;;4988214;28;21102;-57
2023/06/16 06:25:50;;;;;;;11.27;10.47;;;18.20;99.90;;;;;;5000887;28;20525;-58
2023/06/16 06:28:18;;;;;;;10.40;9.60;;;18.30;99.90;;;;;;4991929;28;20503;-57
2023/06/16 06:30:48;;;;;;;12.27;11.27;;;18.30;99.90;;;;;;4995771;28;20522;-57
2023/06/16 06:33:16;;;;;;;11.57;10.57;;;18.40;99.90;;;;;;4996260;28;20499;-57
2023/06/16 06:35:44;;;;;;;11.63;10.73;;;18.40;99.90;;;;;;4999104;28;20511;-57
2023/06/16 06:38:12;;;;;;;12.90;11.27;;;18.40;99.90;;;;;;5001465;28;20503;-57
2023/06/16 06:40:40;;;;;;;12.30;10.97;;;18.40;99.90;;;;;;4991826;28;20582;-56
2023/06/16 06:43:08;;;;;;;12.90;11.70;;;18.40;99.90;;;;;;4998626;28;20526;-57
2023/06/16 06:45:35;;;;;;;11.87;10.87;;;18.50;99.90;;;;;;4990561;28;20501;-57
2023/06/16 06:48:05;;;;;;;11.77;10.83;;;18.50;99.90;;;;;;4995689;28;20475;-58
2023/06/16 06:50:33;;;;;;;13.43;10.77;;;18.50;99.90;;;;;;4995681;28;20496;-57
2023/06/16 06:53:01;;;;;;;11.00;9.97;;;18.50;99.90;;;;;;4994524;28;20496;-57
2023/06/16 06:55:29;;;;;;;11.53;10.63;;;18.60;99.90;;;;;;4996703;28;20844;-57
2023/06/16 06:57:57;;;;;;;10.53;9.67;;;18.60;99.90;;;;;;4992332;28;20579;-57
2023/06/16 07:00:25;;;;;;;11.90;10.80;;;18.80;99.90;;;;;;4994888;28;20566;-57
2023/06/16 07:02:53;;;;;;;10.63;9.83;;;18.80;99.90;;;;;;4991194;28;20491;-57
2023/06/16 07:05:22;;;;;;;10.07;9.17;;;18.90;99.90;;;;;;4984207;28;20475;-57
2023/06/16 07:07:50;;;;;;;9.93;9.00;;;19.00;99.90;;;;;;4997063;28;20470;-56
2023/06/16 07:10:19;;;;;;;9.77;8.83;;;19.00;99.90;;;;;;5000073;28;20468;-56
2023/06/16 07:12:48;;;;;;;8.50;7.80;;;19.10;99.90;;;;;;4996262;28;20504;-57
2023/06/16 07:15:16;;;;;;;8.47;7.70;;;19.30;99.90;;;;;;4996086;28;20527;-57
2023/06/16 07:17:45;;;;;;;7.70;7.03;;;19.30;99.90;;;;;;4999060;28;20496;-57
2023/06/16 07:20:14;;;;;;;8.53;7.73;;;19.30;99.90;;;;;;4999679;28;20495;-56
2023/06/16 07:22:45;;;;;;;8.47;7.77;;;19.30;99.90;;;;;;4996584;28;20627;-56
2023/06/16 07:25:13;;;;;;;9.13;8.33;;;19.40;99.90;;;;;;4990116;28;20562;-56
2023/06/16 07:27:42;;;;;;;9.30;8.60;;;19.40;99.90;;;;;;4991219;28;20550;-57
2023/06/16 07:30:11;;;;;;;9.23;8.43;;;19.50;99.90;;;;;;4989766;28;21092;-57
2023/06/16 07:32:40;;;;;;;7.70;7.10;;;19.50;99.90;;;;;;4999622;28;20521;-57
2023/06/16 07:35:09;;;;;;;8.50;7.80;;;19.60;99.90;;;;;;4990791;28;20492;-57
2023/06/16 07:37:37;;;;;;;9.60;8.80;;;19.70;99.90;;;;;;5003474;28;20476;-56
2023/06/16 07:40:08;;;;;;;10.57;9.60;;;19.70;99.90;;;;;;5009995;28;20461;-58
2023/06/16 07:42:36;;;;;;;9.57;8.73;;;19.70;99.90;;;;;;4996500;28;20500;-58
2023/06/16 07:45:05;;;;;;;9.97;9.10;;;19.80;99.90;;;;;;4997152;28;20574;-58
2023/06/16 07:47:33;;;;;;;9.80;8.90;;;19.90;99.90;;;;;;4994318;28;20925;-58
2023/06/16 07:50:01;;;;;;;10.50;9.20;;;19.90;99.90;;;;;;5000127;28;20514;-57
2023/06/16 07:52:29;;;;;;;9.53;8.73;;;19.90;99.90;;;;;;4999760;28;20527;-57
2023/06/16 07:54:57;;;;;;;9.47;8.67;;;19.90;99.90;;;;;;4997150;28;20583;-56
2023/06/16 07:57:27;;;;;;;10.33;9.33;;;19.90;99.90;;;;;;5000437;28;20503;-57
2023/06/16 07:59:58;;;;;;;16.83;11.10;;;19.90;99.90;;;;;;4999435;28;20536;-57
2023/06/16 08:02:26;;;;;;;10.93;10.03;;;19.90;99.90;;;;;;4996180;28;20914;-57
2023/06/16 08:04:54;;;;;;;10.80;10.00;;;19.90;99.90;;;;;;4998331;28;20527;-57
2023/06/16 08:07:22;;;;;;;11.40;10.50;;;19.80;99.90;;;;;;4998545;28;20563;-57
2023/06/16 08:09:50;;;;;;;11.77;10.67;;;19.80;99.90;;;;;;4996657;28;20610;-57
2023/06/16 08:12:18;;;;;;;10.97;10.17;;;19.90;99.90;;;;;;4994846;28;20579;-57
2023/06/16 08:14:47;;;;;;;11.73;10.60;;;19.90;99.90;;;;;;4996747;28;20606;-57
2023/06/16 08:17:15;;;;;;;13.70;12.60;;;19.90;99.90;;;;;;4998411;28;20501;-57
2023/06/16 08:19:43;;;;;;;13.13;12.13;;;19.80;99.90;;;;;;5001026;28;20543;-57
2023/06/16 08:22:12;;;;;;;12.40;11.50;;;19.80;99.90;;;;;;4999020;28;20500;-58
2023/06/16 08:24:40;;;;;;;13.53;12.33;;;19.80;99.90;;;;;;4994680;28;20488;-57
2023/06/16 08:27:08;;;;;;;13.33;12.07;;;19.80;99.90;;;;;;5001891;28;20476;-57
2023/06/16 08:29:36;;;;;;;13.07;12.10;;;19.90;99.90;;;;;;4998320;28;20511;-57
2023/06/16 08:32:06;;;;;;;11.50;10.70;;;20.10;99.90;;;;;;4996837;28;20583;-57
2023/06/16 08:34:35;;;;;;;11.33;10.57;;;20.20;99.90;;;;;;4998436;28;20531;-57
2023/06/16 08:37:04;;;;;;;12.77;11.57;;;20.30;99.90;;;;;;5000050;28;20548;-57
2023/06/16 08:39:51;;;;;;;11.40;10.50;;;20.30;99.90;;;;;;5000381;28;20511;-56
2023/06/16 08:42:20;;;;;;;11.93;11.10;;;20.40;99.90;;;;;;4986131;28;20524;-57
2023/06/16 08:44:49;;;;;;;11.47;10.57;;;20.40;99.90;;;;;;4990472;28;20580;-57
2023/06/16 08:47:18;;;;;;;11.70;10.70;;;20.50;99.90;;;;;;4996498;28;20918;-57
2023/06/16 08:49:47;;;;;;;12.07;11.03;;;20.60;99.90;;;;;;4996310;28;20603;-59
2023/06/16 08:52:18;;;;;;;12.30;11.20;;;20.60;99.90;;;;;;4988973;28;20491;-57
2023/06/16 08:55:03;;;;;;;12.37;11.47;;;20.70;99.90;;;;;;4987970;28;20495;-57
2023/06/16 08:57:33;;;;;;;13.50;12.37;;;20.70;99.90;;;;;;4994249;28;20519;-57
2023/06/16 09:00:02;;;;;;;12.00;11.00;;;20.70;99.90;;;;;;4994889;28;20993;-57
2023/06/16 09:02:31;;;;;;;13.10;12.10;;;20.60;99.90;;;;;;4991651;28;20546;-56
2023/06/16 09:04:59;;;;;;;12.13;11.23;;;20.60;99.90;;;;;;4990823;28;20489;-57
2023/06/16 09:07:28;;;;;;;12.50;11.40;;;20.60;99.90;;;;;;4989757;28;20538;-57
2023/06/16 09:09:56;;;;;;;12.27;11.27;;;20.70;99.90;;;;;;4997975;28;20918;-57
2023/06/16 09:12:24;;;;;;;12.10;11.10;;;20.70;99.90;;;;;;4996404;28;20572;-58
2023/06/16 09:14:52;;;;;;;12.93;11.83;;;20.80;99.90;;;;;;4997675;28;20488;-57
2023/06/16 09:17:24;;;;;;;12.87;11.67;;;20.80;99.90;;;;;;4996021;28;20559;-57
2023/06/16 09:19:55;;;;;;;12.07;11.17;;;20.60;99.90;;;;;;4996095;28;21210;-57
2023/06/16 09:22:26;;;;;;;12.67;11.47;;;20.60;99.90;;;;;;4995818;28;20848;-57
2023/06/16 09:24:55;;;;;;;11.97;11.00;;;20.50;99.90;;;;;;4996139;28;21187;-57
2023/06/16 09:27:28;;;;;;;13.00;12.00;;;20.50;99.90;;;;;;4994814;28;20479;-58
2023/06/16 09:29:59;;;;;;;12.97;11.97;;;20.50;99.90;;;;;;4996424;28;20471;-57
2023/06/16 09:32:37;;;;;;;14.20;12.87;;;20.40;99.90;;;;;;4993285;28;20491;-57
2023/06/16 09:35:21;;;;;;;13.10;12.13;;;20.30;99.90;;;;;;4996582;28;20503;-58
2023/06/16 09:37:50;;;;;;;13.90;12.80;;;20.20;99.90;;;;;;4997316;28;20500;-57
2023/06/16 09:40:20;;;;;;;12.63;11.63;;;20.20;99.90;;;;;;4993804;28;20472;-58
2023/06/16 09:42:51;;;;;;;12.80;11.80;;;20.20;99.90;;;;;;4990423;28;20684;-58
2023/06/16 09:45:20;;;;;;;12.20;11.37;;;20.20;99.90;;;;;;4995563;28;20954;-57
2023/06/16 09:47:51;;;;;;;12.40;11.50;;;20.30;99.90;;;;;;4989932;28;20560;-57
2023/06/16 09:50:23;;;;;;;12.03;10.93;;;20.50;99.90;;;;;;4995542;28;20468;-57
2023/06/16 09:52:51;;;;;;;11.83;10.80;;;20.50;99.90;;;;;;4990908;28;20484;-57
2023/06/16 09:55:20;;;;;;;11.53;10.53;;;20.60;99.90;;;;;;4990890;28;20476;-58
2023/06/16 09:57:48;;;;;;;11.60;10.60;;;20.70;99.90;;;;;;4986331;28;20574;-57
2023/06/16 10:00:16;;;;;;;12.00;10.83;;;20.90;99.90;;;;;;4996338;28;20499;-59
2023/06/16 10:02:46;;;;;;;11.70;10.80;;;20.90;99.90;;;;;;4997619;28;20519;-57
2023/06/16 10:05:17;;;;;;;10.50;9.67;;;21.00;99.90;;;;;;5009440;28;20506;-57
2023/06/16 10:07:49;;;;;;;10.33;9.43;;;21.10;99.90;;;;;;5019590;28;20492;-57
2023/06/16 10:10:22;;;;;;;10.83;10.03;;;21.20;99.90;;;;;;4995844;28;20845;-57
2023/06/16 10:12:56;;;;;;;10.60;9.53;;;21.40;99.90;;;;;;4998398;28;20557;-58
2023/06/16 10:15:27;;;;;;;10.50;9.67;;;21.60;99.90;;;;;;5002486;28;20559;-57
2023/06/16 10:17:57;;;;;;;10.23;9.43;;;21.70;99.90;;;;;;5005275;28;20464;-57
2023/06/16 10:20:26;;;;;;;10.33;9.40;;;21.60;99.90;;;;;;5003775;28;20464;-60
2023/06/16 10:22:57;;;;;;;10.13;9.33;;;21.60;99.90;;;;;;5000088;28;20500;-57
2023/06/16 10:25:26;;;;;;;10.80;9.83;;;21.60;99.90;;;;;;4999544;28;20651;-57
2023/06/16 10:27:55;;;;;;;9.53;8.63;;;21.60;99.90;;;;;;5000708;28;20504;-57
2023/06/16 10:30:24;;;;;;;9.87;9.00;;;21.50;99.90;;;;;;5002514;28;20744;-57
2023/06/16 10:32:53;;;;;;;11.70;10.70;;;21.50;99.90;;;;;;5003134;28;20949;-57
2023/06/16 10:35:22;;;;;;;11.20;10.20;;;21.40;99.90;;;;;;4998221;28;20539;-57
2023/06/16 10:37:52;;;;;;;9.50;8.80;;;21.40;99.90;;;;;;4999958;28;20468;-57
2023/06/16 10:40:22;;;;;;;10.00;9.20;;;21.20;99.90;;;;;;4999690;28;21041;-57
2023/06/16 10:42:52;;;;;;;10.60;9.60;;;21.20;99.90;;;;;;4996231;28;20551;-57
2023/06/16 10:45:25;;;;;;;10.57;9.73;;;21.20;99.90;;;;;;4997073;28;20542;-57
2023/06/16 10:47:57;;;;;;;9.57;8.73;;;21.30;99.90;;;;;;4998277;28;20853;-57
2023/06/16 10:50:33;;;;;;;9.60;8.90;;;21.30;99.90;;;;;;4999522;28;20468;-57
2023/06/16 10:53:11;;;;;;;10.40;9.27;;;21.30;99.90;;;;;;4998507;28;20480;-57
2023/06/16 10:55:44;;;;;;;8.23;7.43;;;21.30;99.90;;;;;;4991225;28;20970;-57
2023/06/16 10:58:26;;;;;;;9.57;8.67;;;21.30;99.90;;;;;;4995241;28;20477;-57
2023/06/16 11:01:06;;;;;;;9.57;8.77;;;21.30;99.90;;;;;;4994746;28;20479;-57
2023/06/16 11:03:38;;;;;;;9.00;8.30;;;21.40;99.90;;;;;;4995389;28;20503;-57
2023/06/16 11:06:07;;;;;;;9.50;8.63;;;21.40;99.90;;;;;;4996627;28;20507;-57
2023/06/16 11:08:50;;;;;;;7.47;6.87;;;21.50;99.90;;;;;;4997875;28;20472;-57
2023/06/16 11:11:20;;;;;;;9.93;9.00;;;21.60;99.90;;;;;;4994468;28;20492;-57
2023/06/16 11:13:48;;;;;;;9.90;9.20;;;21.80;99.90;;;;;;5000359;28;20488;-57
2023/06/16 11:16:16;;;;;;;9.57;8.57;;;21.90;99.90;;;;;;4995464;28;20923;-57
2023/06/16 11:18:44;;;;;;;8.60;7.87;;;21.90;99.90;;;;;;4997582;28;20517;-56
2023/06/16 11:21:12;;;;;;;9.80;9.00;;;22.00;99.90;;;;;;4998368;28;20562;-57
2023/06/16 11:23:43;;;;;;;9.87;9.07;;;22.00;99.90;;;;;;4996054;28;20502;-59
2023/06/16 11:26:14;;;;;;;9.40;8.67;;;22.00;99.90;;;;;;4994590;28;20489;-59
2023/06/16 11:28:45;;;;;;;9.33;8.57;;;22.00;99.90;;;;;;4991053;28;20478;-59
2023/06/16 11:31:14;;;;;;;8.83;8.07;;;22.10;99.90;;;;;;4993535;28;20567;-61
2023/06/16 11:33:43;;;;;;;9.30;8.53;;;22.00;99.90;;;;;;4988496;28;20581;-58
2023/06/16 11:36:18;;;;;;;8.67;8.07;;;22.00;99.90;;;;;;4991274;28;20508;-60
2023/06/16 11:38:47;;;;;;;9.13;8.23;;;21.90;99.90;;;;;;4998942;28;20471;-59
2023/06/16 11:41:17;;;;;;;8.37;7.67;;;21.90;99.90;;;;;;4998762;28;20496;-59
2023/06/16 11:43:47;;;;;;;9.17;8.20;;;21.90;99.90;;;;;;4997675;28;20576;-59
2023/06/16 11:46:17;;;;;;;8.73;7.97;;;21.80;99.90;;;;;;4999340;28;21014;-59
2023/06/16 11:48:45;;;;;;;9.47;8.67;;;21.80;99.90;;;;;;5001261;28;20902;-59
2023/06/16 11:51:14;;;;;;;8.80;8.10;;;21.80;99.90;;;;;;5001703;28;20491;-59
2023/06/16 11:53:44;;;;;;;10.93;10.00;;;21.80;99.90;;;;;;5004790;28;20483;-59
2023/06/16 11:56:14;;;;;;;8.40;7.70;;;21.70;99.90;;;;;;5000330;28;20468;-60
2023/06/16 11:58:44;;;;;;;11.53;8.30;;;21.70;99.90;;;;;;4997893;28;21050;-59
2023/06/16 12:01:16;;;;;;;8.67;7.83;;;21.70;99.90;;;;;;5000975;28;20512;-59
2023/06/16 12:03:46;;;;;;;9.13;8.27;;;21.60;99.90;;;;;;5002342;28;20500;-59
2023/06/16 12:06:32;;;;;;;9.40;8.13;;;21.60;99.90;;;;;;4997207;28;20993;-59
2023/06/16 12:09:03;;;;;;;10.37;9.47;;;21.50;99.90;;;;;;4993637;28;20468;-61
2023/06/16 12:11:32;;;;;;;10.47;9.57;;;21.50;99.90;;;;;;4984390;28;20509;-60
2023/06/16 12:14:01;;;;;;;10.00;9.07;;;21.40;99.90;;;;;;4998997;28;20544;-61
2023/06/16 12:16:32;;;;;;;9.77;8.90;;;21.20;99.90;;;;;;5000811;28;20476;-60
2023/06/16 12:19:00;;;;;;;10.93;9.93;;;21.20;99.90;;;;;;4997097;28;20468;-61
2023/06/16 12:21:30;;;;;;;9.93;9.10;;;21.20;99.90;;;;;;4991873;28;20496;-62
2023/06/16 12:23:59;;;;;;;11.43;9.97;;;21.10;99.90;;;;;;4998118;28;20535;-63
2023/06/16 12:26:30;;;;;;;9.77;9.00;;;21.10;99.90;;;;;;4998605;28;20469;-62
2023/06/16 12:29:00;;;;;;;10.57;9.53;;;21.20;99.90;;;;;;5000266;28;20515;-60
2023/06/16 12:31:31;;;;;;;11.83;10.83;;;21.10;99.90;;;;;;4995846;28;20575;-61
2023/06/16 12:33:59;;;;;;;11.50;10.60;;;21.00;99.90;;;;;;4993614;28;20498;-60
2023/06/16 12:36:27;;;;;;;10.83;9.93;;;21.00;99.90;;;;;;4998921;28;20826;-62
2023/06/16 12:38:57;;;;;;;11.00;10.10;;;20.90;99.90;;;;;;5000510;28;20554;-61
2023/06/16 12:41:28;;;;;;;11.03;10.23;;;20.90;99.90;;;;;;4997521;28;20512;-61
2023/06/16 12:43:56;;;;;;;11.47;10.27;;;20.90;99.90;;;;;;5008638;28;20912;-60
2023/06/16 12:46:24;;;;;;;11.47;10.63;;;20.90;99.90;;;;;;5001740;28;20472;-60
2023/06/16 12:48:54;;;;;;;11.27;10.20;;;20.90;99.90;;;;;;4995185;28;21010;-60